CDT,Max TemperatureF,Mean TemperatureF,Min TemperatureF,Max Dew PointF,MeanDew PointF,Min DewpointF,Max Humidity, Mean Humidity, Min Humidity, Max Sea Level PressureIn, Mean Sea Level PressureIn, Min Sea Level PressureIn, Max VisibilityMiles, Mean VisibilityMiles, Min VisibilityMiles, Max Wind SpeedMPH, Mean Wind SpeedMPH, Max Gust SpeedMPH,PrecipitationIn, CloudCover, Events, WindDirDegrees
2012-10-1,64,50,35,50,42,32,97,76,45,29.96,29.89,29.84,10,10,5,4,0,,0.00,0,,172
2012-10-2,71,54,38,50,45,36,98,74,41,29.94,29.89,29.84,10,9,2,8,2,,0.00,0,,64
2012-10-3,66,52,37,55,48,36,100,84,57,30.00,29.95,29.92,10,7,0,6,1,,0.00,7,Fog,181
2012-10-4,68,56,44,53,45,32,99,72,43,30.10,29.99,29.91,10,8,0,17,5,26,0.00,3,Fog-Rain,234
2012-10-5,52,42,34,32,27,22,79,56,35,30.12,30.07,30.02,10,10,10,16,8,24,0.00,1,,258
2012-10-6,47,40,35,28,26,22,62,54,46,30.17,30.11,30.03,10,10,10,16,9,22,0.00,7,,297
2012-10-7,49,38,28,27,22,16,70,51,28,30.17,30.12,30.07,10,10,10,12,5,17,0.00,4,,281
2012-10-8,59,44,30,31,25,20,68,50,29,30.08,29.99,29.89,10,10,10,22,7,33,0.00,2,,190
2012-10-9,60,50,39,45,37,31,93,63,44,29.88,29.83,29.75,10,10,7,18,13,28,0.09,4,Rain,225
2012-10-10,49,40,32,36,28,21,89,67,35,30.12,30.03,29.86,10,10,10,21,8,29,0.00,3,,270
2012-10-11,60,48,37,41,31,22,70,55,37,30.29,30.07,29.97,10,10,10,21,10,29,0.00,5,Rain,256
2012-10-12,51,38,24,33,25,17,86,59,29,30.46,30.37,30.24,10,10,10,12,4,17,0.00,0,,109
2012-10-13,62,50,40,61,48,33,99,93,68,30.19,29.92,29.73,10,6,2,15,7,21,0.78,8,Rain,168
2012-10-14,62,54,45,62,53,42,100,96,88,29.76,29.60,29.44,10,6,0,18,7,30,0.86,8,Rain,289
2012-10-15,56,46,37,42,38,35,93,77,48,29.93,29.88,29.77,10,10,10,13,7,16,0.01,3,,310
2012-10-16,68,52,38,52,44,36,96,73,44,29.92,29.69,29.47,10,10,7,18,5,29,0.00,2,Rain,149
2012-10-17,67,59,51,56,51,47,99,79,56,29.47,29.39,29.26,10,9,2,17,8,31,0.46,4,Rain,189
2012-10-18,51,46,42,50,42,40,96,89,79,29.42,29.32,29.24,10,10,5,17,10,23,0.11,8,Rain,204
2012-10-19,50,45,41,43,42,40,99,90,71,29.63,29.51,29.41,10,9,4,9,5,,0.08,8,Rain,353
2012-10-20,55,45,34,43,40,33,95,82,55,29.91,29.77,29.64,10,10,10,9,4,,0.00,5,,285
2012-10-21,65,48,32,48,41,32,99,80,50,30.01,29.96,29.91,10,9,3,13,3,17,0.00,0,,141
2012-10-22,61,54,47,58,53,46,99,94,82,29.95,29.92,29.88,10,6,2,9,2,,0.40,5,Rain-Thunderstorm,83
2012-10-23,63,58,53,61,57,54,100,99,94,29.93,29.89,29.84,10,3,0,12,4,17,0.21,8,Fog-Rain-Thunderstorm,114
2012-10-24,75,67,59,65,62,59,97,86,70,29.90,29.85,29.77,10,9,5,14,6,22,0.00,6,,171
2012-10-25,69,54,38,63,54,30,95,84,72,30.06,29.74,29.57,10,10,5,22,14,36,0.31,7,Rain-Thunderstorm,210
2012-10-26,46,38,32,30,27,26,81,64,47,30.33,30.26,30.08,10,10,10,15,9,24,0.00,0,,308
2012-10-27,43,34,24,27,23,18,95,67,41,30.35,30.31,30.27,10,10,10,12,3,18,0.00,0,,351
2012-10-28,47,37,26,27,24,20,90,64,42,30.34,30.31,30.28,10,10,10,13,4,21,0.00,0,,15
2012-10-29,48,37,26,31,26,22,92,67,36,30.34,30.27,30.12,10,10,10,14,4,21,0.00,0,,358
2012-10-30,45,40,33,28,24,18,76,58,39,30.11,29.93,29.84,10,10,10,24,15,32,0.00,2,,341
2012-10-31,47,38,29,30,24,17,79,62,48,29.86,29.84,29.81,10,10,10,17,10,22,0.00,0,,315